createdAt,value
2022-10-09T00:02:11.083Z,101028.73
2022-10-09T00:04:40.352Z,101031.19
2022-10-09T00:07:09.652Z,101025.04
2022-10-09T00:09:38.646Z,101022.77
2022-10-09T00:12:07.791Z,101021.51
2022-10-09T00:14:37.103Z,101017.39
2022-10-09T00:17:06.276Z,101017.31
2022-10-09T00:19:35.371Z,101016.88
2022-10-09T00:22:04.529Z,101015.11
2022-10-09T00:24:33.757Z,101012.20
2022-10-09T00:27:02.886Z,101010.97
2022-10-09T00:29:32.566Z,101008.56
2022-10-09T00:32:01.662Z,101004.95
2022-10-09T00:34:30.964Z,101004.71
2022-10-09T00:37:00.359Z,101009.11
2022-10-09T00:39:30.386Z,101003.84
2022-10-09T00:41:59.954Z,101004.68
2022-10-09T00:44:53.769Z,101006.33
2022-10-09T00:47:28.594Z,101006.55
2022-10-09T00:50:03.282Z,101008.56
2022-10-09T00:52:33.256Z,101008.80
2022-10-09T00:55:04.388Z,101009.00
2022-10-09T00:57:34.409Z,101003.73
2022-10-09T01:00:08.871Z,101000.58
2022-10-09T01:02:38.711Z,101001.23
2022-10-09T01:05:11.917Z,100999.92
2022-10-09T01:07:49.260Z,100997.20
2022-10-09T01:10:30.670Z,100998.86
2022-10-09T01:13:06.929Z,101001.33
2022-10-09T01:15:44.470Z,101001.70
2022-10-09T01:18:21.880Z,101001.60
2022-10-09T01:20:54.708Z,101003.91
2022-10-09T01:23:43.146Z,101005.83
2022-10-09T01:26:35.370Z,101012.02
2022-10-09T01:29:09.723Z,101014.53
2022-10-09T01:31:43.475Z,101014.41
2022-10-09T01:34:14.540Z,101010.49
2022-10-09T01:36:46.093Z,101013.02
2022-10-09T01:39:19.266Z,101013.40
2022-10-09T01:41:51.135Z,101015.00
2022-10-09T01:44:22.282Z,101014.13
2022-10-09T01:46:51.718Z,101010.56
2022-10-09T01:49:32.606Z,101010.63
2022-10-09T01:52:06.787Z,101007.08
2022-10-09T01:54:43.863Z,101006.98
2022-10-09T01:57:18.794Z,101004.82
2022-10-09T01:59:50.445Z,101004.65
2022-10-09T02:02:21.216Z,101004.76
2022-10-09T02:04:52.088Z,101004.20
2022-10-09T02:07:23.455Z,101001.63
2022-10-09T02:09:53.816Z,101000.25
2022-10-09T02:12:25.385Z,100996.64
2022-10-09T02:14:54.628Z,100997.45
2022-10-09T02:17:29.987Z,100998.41
2022-10-09T02:20:04.598Z,101001.66
2022-10-09T02:22:34.752Z,100997.65
2022-10-09T02:25:07.228Z,101001.13
2022-10-09T02:27:37.109Z,101000.31
2022-10-09T02:30:11.054Z,101001.17
2022-10-09T02:32:40.178Z,101003.64
2022-10-09T02:35:10.229Z,101000.86
2022-10-09T02:37:39.268Z,101004.58
2022-10-09T02:40:10.951Z,101006.69
2022-10-09T02:42:41.920Z,101005.11
2022-10-09T02:45:11.985Z,101011.10
2022-10-09T02:47:41.106Z,101010.96
2022-10-09T02:50:11.477Z,101013.23
2022-10-09T02:52:40.495Z,101012.62
2022-10-09T02:55:10.305Z,101013.63
2022-10-09T02:57:40.864Z,101013.26
2022-10-09T03:00:14.122Z,101015.74
2022-10-09T03:02:43.398Z,101014.17
2022-10-09T03:05:12.897Z,101013.15
2022-10-09T03:07:42.129Z,101013.73
2022-10-09T03:10:12.677Z,101013.45
2022-10-09T03:12:41.733Z,101015.11
2022-10-09T03:15:12.112Z,101018.38
2022-10-09T03:17:41.746Z,101020.03
2022-10-09T03:20:11.292Z,101022.72
2022-10-09T03:22:40.397Z,101023.96
2022-10-09T03:25:10.097Z,101022.98
2022-10-09T03:27:39.656Z,101019.58
2022-10-09T03:30:11.204Z,101020.60
2022-10-09T03:32:40.342Z,101020.30
2022-10-09T03:35:10.135Z,101015.09
2022-10-09T03:37:39.333Z,101016.09
2022-10-09T03:40:10.788Z,101015.52
2022-10-09T03:42:39.861Z,101017.60
2022-10-09T03:45:10.853Z,101020.88
2022-10-09T03:47:39.871Z,101021.67
2022-10-09T03:50:13.206Z,101021.38
2022-10-09T03:52:42.405Z,101022.20
2022-10-09T03:55:11.367Z,101019.87
2022-10-09T03:57:40.940Z,101019.48
2022-10-09T04:00:13.411Z,101018.55
2022-10-09T04:02:42.679Z,101019.39
2022-10-09T04:05:11.892Z,101022.14
2022-10-09T04:07:40.842Z,101021.79
2022-10-09T04:10:11.579Z,101019.65
2022-10-09T04:12:43.761Z,101022.30
2022-10-09T04:15:12.678Z,101017.67
2022-10-09T04:17:41.847Z,101018.63
2022-10-09T04:20:11.203Z,101022.91
2022-10-09T04:22:40.181Z,101018.06
2022-10-09T04:25:10.314Z,101021.63
2022-10-09T04:27:39.375Z,101027.53
2022-10-09T04:30:11.040Z,101027.64
2022-10-09T04:32:40.106Z,101027.31
2022-10-09T04:35:09.967Z,101032.76
2022-10-09T04:37:40.628Z,101035.04
2022-10-09T04:40:10.540Z,101029.95
2022-10-09T04:42:39.695Z,101030.46
2022-10-09T04:45:10.906Z,101031.20
2022-10-09T04:47:40.192Z,101035.03
2022-10-09T04:50:10.934Z,101039.75
2022-10-09T04:52:39.860Z,101046.17
2022-10-09T04:55:10.073Z,101048.97
2022-10-09T04:57:42.327Z,101048.45
2022-10-09T05:00:14.588Z,101044.99
2022-10-09T05:02:43.741Z,101045.34
2022-10-09T05:05:13.075Z,101050.65
2022-10-09T05:07:42.132Z,101050.46
2022-10-09T05:10:11.397Z,101059.34
2022-10-09T05:12:40.608Z,101060.20
2022-10-09T05:15:11.029Z,101061.96
2022-10-09T05:17:40.202Z,101063.20
2022-10-09T05:20:11.821Z,101066.87
2022-10-09T05:22:43.662Z,101072.53
2022-10-09T05:25:12.958Z,101072.58
2022-10-09T05:27:42.064Z,101076.28
2022-10-09T05:30:12.896Z,101076.81
2022-10-09T05:32:41.836Z,101076.11
2022-10-09T05:35:11.187Z,101077.84
2022-10-09T05:37:40.461Z,101077.95
2022-10-09T05:40:12.045Z,101088.26
2022-10-09T05:42:43.098Z,101089.15
2022-10-09T05:45:12.849Z,101089.34
2022-10-09T05:47:42.005Z,101089.17
2022-10-09T05:50:11.435Z,101090.54
2022-10-09T05:52:43.604Z,101095.85
2022-10-09T05:55:12.798Z,101096.78
2022-10-09T05:57:42.179Z,101097.99
2022-10-09T06:00:14.370Z,101100.73
2022-10-09T06:02:43.484Z,101102.94
2022-10-09T06:05:12.559Z,101107.50
2022-10-09T06:07:41.769Z,101111.83
2022-10-09T06:10:14.863Z,101110.17
2022-10-09T06:12:48.871Z,101114.34
2022-10-09T06:15:20.443Z,101118.01
2022-10-09T06:17:51.462Z,101118.34
2022-10-09T06:20:20.850Z,101120.29
2022-10-09T06:22:52.429Z,101124.12
2022-10-09T06:25:26.096Z,101121.83
2022-10-09T06:28:03.438Z,101127.61
2022-10-09T06:30:38.424Z,101128.58
2022-10-09T06:33:08.101Z,101136.52
2022-10-09T06:35:37.344Z,101134.46
2022-10-09T06:38:07.403Z,101137.03
2022-10-09T06:40:37.005Z,101137.50
2022-10-09T06:43:07.548Z,101137.42
2022-10-09T06:45:38.729Z,101136.30
2022-10-09T06:48:08.236Z,101132.91
2022-10-09T06:50:39.492Z,101131.45
2022-10-09T06:53:09.421Z,101130.46
2022-10-09T06:55:51.170Z,101131.92
2022-10-09T06:58:21.016Z,101130.21
2022-10-09T07:00:50.419Z,101124.47
2022-10-09T07:03:20.011Z,101127.86
2022-10-09T07:05:49.178Z,101128.31
2022-10-09T07:08:31.270Z,101124.61
2022-10-09T07:11:00.606Z,101127.91
2022-10-09T07:13:36.669Z,101132.05
2022-10-09T07:16:08.124Z,101129.09
2022-10-09T07:18:38.429Z,101132.48
2022-10-09T07:21:11.431Z,101136.23
2022-10-09T07:23:40.888Z,101136.30
2022-10-09T07:26:20.617Z,101136.70
2022-10-09T07:28:53.325Z,101134.59
2022-10-09T07:31:22.593Z,101138.63
2022-10-09T07:33:52.810Z,101136.14
2022-10-09T07:36:22.975Z,101137.39
2022-10-09T07:38:54.162Z,101134.08
2022-10-09T07:41:27.428Z,101135.86
2022-10-09T07:43:57.381Z,101140.45
2022-10-09T07:54:54.645Z,101142.36
2022-10-09T07:57:25.211Z,101144.13
2022-10-09T08:00:04.070Z,101149.60
2022-10-09T08:02:33.461Z,101151.20
2022-10-09T08:05:03.647Z,101149.23
2022-10-09T08:07:38.444Z,101147.63
2022-10-09T08:10:09.287Z,101146.73
2022-10-09T08:12:38.582Z,101148.14
2022-10-09T08:15:09.855Z,101147.79
2022-10-09T08:17:39.488Z,101149.01
2022-10-09T08:20:10.462Z,101153.06
2022-10-09T08:22:39.534Z,101144.39
2022-10-09T08:25:09.718Z,101148.61
2022-10-09T08:27:38.796Z,101150.52
2022-10-09T08:30:10.218Z,101151.59
2022-10-09T08:32:40.459Z,101147.34
2022-10-09T08:35:10.874Z,101152.44
2022-10-09T08:37:40.133Z,101153.81
2022-10-09T08:40:16.338Z,101147.58
2022-10-09T08:42:52.960Z,101145.95
2022-10-09T08:45:22.222Z,101143.59
2022-10-09T08:48:02.755Z,101144.27
2022-10-09T08:50:50.068Z,101136.58
2022-10-09T08:53:47.174Z,101137.41
2022-10-09T08:56:17.011Z,101133.41
2022-10-09T08:59:13.474Z,101137.61
2022-10-09T09:01:49.857Z,101137.90
2022-10-09T09:04:51.139Z,101139.07
2022-10-09T09:07:31.227Z,101131.02
2022-10-09T09:10:06.202Z,101133.75
2022-10-09T09:12:46.664Z,101132.59
2022-10-09T09:15:26.476Z,101137.06
2022-10-09T09:18:04.590Z,101136.58
2022-10-09T09:20:40.150Z,101137.75
2022-10-09T09:23:15.944Z,101133.69
2022-10-09T09:25:45.759Z,101131.53
2022-10-09T09:28:21.518Z,101126.39
2022-10-09T09:30:57.462Z,101128.33
2022-10-09T09:33:38.085Z,101125.62
2022-10-09T09:36:18.029Z,101130.54
2022-10-09T09:39:35.131Z,101127.41
2022-10-09T09:41:39.935Z,101131.52
2022-10-09T09:44:11.883Z,101132.10
2022-10-09T09:46:41.829Z,101131.02
2022-10-09T09:49:19.299Z,101131.38
2022-10-09T09:51:50.581Z,101129.59
2022-10-09T09:54:22.557Z,101127.87
2022-10-09T09:57:11.901Z,101125.90
2022-10-09T09:59:44.255Z,101122.54
2022-10-09T10:02:34.613Z,101122.36
2022-10-09T10:05:20.573Z,101123.39
2022-10-09T10:07:51.105Z,101123.45
2022-10-09T10:10:25.382Z,101122.96
2022-10-09T10:13:00.164Z,101120.69
2022-10-09T10:15:32.548Z,101117.69
2022-10-09T10:18:05.526Z,101122.17
2022-10-09T10:20:47.011Z,101123.73
2022-10-09T10:23:32.386Z,101118.09
2022-10-09T10:26:06.905Z,101113.34
2022-10-09T10:28:45.935Z,101116.26
2022-10-09T10:31:26.322Z,101114.48
2022-10-09T10:33:58.041Z,101111.11
2022-10-09T10:36:28.807Z,101106.52
2022-10-09T10:39:05.339Z,101108.15
2022-10-09T10:41:44.941Z,101103.90
2022-10-09T10:44:30.930Z,101104.95
2022-10-09T10:47:07.230Z,101104.29
2022-10-09T10:49:37.008Z,101097.38
2022-10-09T10:52:28.379Z,101098.13
2022-10-09T10:55:08.054Z,101088.20
2022-10-09T10:57:55.603Z,101090.34
2022-10-09T11:00:26.898Z,101088.73
2022-10-09T11:03:15.496Z,101086.09
2022-10-09T11:05:51.333Z,101083.05
2022-10-09T11:08:45.588Z,101076.52
2022-10-09T11:11:22.164Z,101075.11
2022-10-09T11:14:02.561Z,101074.43
2022-10-09T11:16:44.282Z,101068.81
2022-10-09T11:19:33.045Z,101070.13
2022-10-09T11:22:10.660Z,101071.02
2022-10-09T11:25:05.000Z,101072.42
2022-10-09T11:27:43.041Z,101076.17
2022-10-09T11:30:14.868Z,101075.84
2022-10-09T11:32:55.911Z,101071.77
2022-10-09T11:35:29.718Z,101074.23
2022-10-09T11:38:02.316Z,101071.45
2022-10-09T11:40:36.909Z,101069.45
2022-10-09T11:43:18.398Z,101067.89
2022-10-09T11:45:55.318Z,101063.09
2022-10-09T11:48:35.359Z,101067.49
2022-10-09T11:52:04.108Z,101064.96
2022-10-09T11:54:34.631Z,101062.02
2022-10-09T11:57:06.290Z,101068.29
2022-10-09T11:59:37.533Z,101066.95
2022-10-09T12:02:25.022Z,101067.58
2022-10-09T12:04:57.052Z,101067.80
2022-10-09T12:07:31.042Z,101059.77
2022-10-09T12:10:12.502Z,101063.46
2022-10-09T12:12:43.304Z,101054.77
2022-10-09T12:15:26.889Z,101054.79
2022-10-09T12:17:58.060Z,101055.98
2022-10-09T12:20:29.197Z,101059.89
2022-10-09T12:23:25.325Z,101058.41
2022-10-09T12:25:51.446Z,101053.50
2022-10-09T12:28:28.928Z,101054.25
2022-10-09T12:31:00.256Z,101056.79
2022-10-09T12:33:34.887Z,101051.94
2022-10-09T12:36:11.469Z,101053.14
2022-10-09T12:38:41.106Z,101050.92
2022-10-09T12:41:21.246Z,101053.46
2022-10-09T12:43:51.883Z,101050.71
2022-10-09T12:46:31.989Z,101053.66
2022-10-09T12:49:03.543Z,101051.60
2022-10-09T12:51:34.014Z,101050.55
2022-10-09T12:54:09.897Z,101056.65
2022-10-09T12:56:39.905Z,101055.73
2022-10-09T12:59:12.960Z,101054.39
2022-10-09T13:01:43.574Z,101053.36
2022-10-09T13:04:26.429Z,101049.92
2022-10-09T13:06:56.781Z,101055.19
2022-10-09T13:09:28.658Z,101053.58
2022-10-09T13:12:04.355Z,101051.15
2022-10-09T13:14:41.194Z,101051.80
2022-10-09T13:17:24.776Z,101051.69
2022-10-09T13:19:55.157Z,101044.77
2022-10-09T13:22:25.161Z,101047.52
2022-10-09T13:24:57.510Z,101046.64
2022-10-09T13:27:29.663Z,101045.13
2022-10-09T13:29:59.979Z,101048.60
2022-10-09T13:32:29.196Z,101043.88
2022-10-09T13:34:58.265Z,101048.33
2022-10-09T13:37:27.702Z,101044.40
2022-10-09T13:39:59.182Z,101046.25
2022-10-09T13:42:32.750Z,101045.59
2022-10-09T13:45:02.016Z,101054.58
2022-10-09T13:47:31.478Z,101054.41
2022-10-09T13:50:00.423Z,101055.61
2022-10-09T13:52:29.673Z,101059.99
2022-10-09T13:54:58.556Z,101055.54
2022-10-09T13:57:27.540Z,101058.50
2022-10-09T13:59:56.714Z,101056.52
2022-10-09T14:02:25.842Z,101052.57
2022-10-09T14:04:54.669Z,101053.71
2022-10-09T14:07:23.607Z,101055.54
2022-10-09T14:09:52.624Z,101058.35
2022-10-09T14:12:21.872Z,101058.08
2022-10-09T14:14:52.405Z,101059.59
2022-10-09T14:17:21.453Z,101062.44
2022-10-09T14:19:50.535Z,101062.79
2022-10-09T14:22:19.711Z,101058.65
2022-10-09T14:24:48.669Z,101064.01
2022-10-09T14:27:17.543Z,101062.84
2022-10-09T14:29:48.277Z,101068.54
2022-10-09T14:32:17.188Z,101072.06
2022-10-09T14:34:46.676Z,101076.23
2022-10-09T14:37:29.668Z,101075.60
2022-10-09T14:40:05.619Z,101076.38
2022-10-09T14:42:36.188Z,101071.14
2022-10-09T14:45:06.728Z,101071.85
2022-10-09T14:47:36.101Z,101074.55
2022-10-09T14:50:06.233Z,101082.46
2022-10-09T14:52:35.383Z,101080.16
2022-10-09T14:55:05.470Z,101083.28
2022-10-09T14:57:35.585Z,101083.36
2022-10-09T15:00:08.767Z,101079.38
2022-10-09T15:02:38.062Z,101080.21
2022-10-09T15:05:08.164Z,101082.10
2022-10-09T15:07:37.166Z,101090.48
2022-10-09T15:10:07.555Z,101091.20
2022-10-09T15:12:36.688Z,101099.73
2022-10-09T15:15:06.845Z,101105.91
2022-10-09T15:17:36.281Z,101104.28
2022-10-09T15:20:06.544Z,101104.98
2022-10-09T15:22:35.877Z,101106.23
2022-10-09T15:25:05.749Z,101109.00
2022-10-09T15:27:34.808Z,101108.59
2022-10-09T15:30:05.668Z,101114.59
2022-10-09T15:32:34.941Z,101112.08
2022-10-09T15:35:04.391Z,101116.38
2022-10-09T15:37:33.853Z,101118.23
2022-10-09T15:40:03.504Z,101120.36
2022-10-09T15:42:32.821Z,101121.13
2022-10-09T15:45:02.458Z,101122.08
2022-10-09T15:47:50.395Z,101124.05
2022-10-09T15:50:20.114Z,101130.73
2022-10-09T15:52:49.707Z,101126.88
2022-10-09T15:55:18.835Z,101128.30
2022-10-09T15:57:47.871Z,101133.84
2022-10-09T16:00:17.664Z,101135.85
2022-10-09T16:02:46.948Z,101142.81
2022-10-09T16:05:16.621Z,101150.42
2022-10-09T16:07:45.978Z,101148.70
2022-10-09T16:10:15.118Z,101152.35
2022-10-09T16:12:44.435Z,101161.59
2022-10-09T16:15:13.459Z,101163.10
2022-10-09T16:17:42.549Z,101161.81
2022-10-09T16:20:12.028Z,101165.28
2022-10-09T16:22:40.956Z,101166.81
2022-10-09T16:25:11.126Z,101168.61
2022-10-09T16:27:40.290Z,101170.77
2022-10-09T16:30:13.290Z,101175.60
2022-10-09T16:32:42.689Z,101180.55
2022-10-09T16:35:11.955Z,101178.73
2022-10-09T16:37:41.018Z,101185.85
2022-10-09T16:40:11.541Z,101186.31
2022-10-09T16:42:40.755Z,101195.09
2022-10-09T16:45:11.504Z,101194.61
2022-10-09T16:47:40.867Z,101202.69
2022-10-09T16:50:11.072Z,101201.36
2022-10-09T16:52:40.268Z,101206.23
2022-10-09T16:55:10.616Z,101210.00
2022-10-09T16:57:39.824Z,101218.72
2022-10-09T17:00:12.208Z,101225.86
2022-10-09T17:02:41.583Z,101227.94
2022-10-09T17:05:11.000Z,101235.12
2022-10-09T17:07:40.128Z,101235.20
2022-10-09T17:10:10.473Z,101240.84
2022-10-09T17:12:39.647Z,101242.41
2022-10-09T17:15:09.773Z,101241.90
2022-10-09T17:17:39.022Z,101248.28
2022-10-09T17:20:09.744Z,101249.89
2022-10-09T17:22:39.018Z,101253.80
2022-10-09T17:25:09.089Z,101255.73
2022-10-09T17:27:38.400Z,101257.25
2022-10-09T17:30:10.172Z,101259.05
2022-10-09T17:32:39.445Z,101262.23
2022-10-09T17:35:09.599Z,101262.74
2022-10-09T17:37:38.762Z,101264.09
2022-10-09T17:40:09.374Z,101268.69
2022-10-09T17:42:38.376Z,101264.61
2022-10-09T17:45:09.962Z,101268.19
2022-10-09T17:47:39.258Z,101269.61
2022-10-09T17:50:10.064Z,101272.45
2022-10-09T17:52:39.496Z,101274.73
2022-10-09T17:55:09.870Z,101275.60
2022-10-09T17:57:39.070Z,101278.61
2022-10-09T18:00:10.692Z,101278.23
2022-10-09T18:02:40.150Z,101279.66
2022-10-09T18:05:09.643Z,101281.25
2022-10-09T18:07:38.796Z,101281.61
2022-10-09T18:10:09.374Z,101285.50
2022-10-09T18:12:38.609Z,101291.16
2022-10-09T18:15:09.611Z,101293.13
2022-10-09T18:17:38.837Z,101292.10
2022-10-09T18:20:09.476Z,101295.03
2022-10-09T18:22:38.725Z,101293.15
2022-10-09T18:25:08.774Z,101298.94
2022-10-09T18:27:38.108Z,101299.96
2022-10-09T18:30:09.514Z,101301.06
2022-10-09T18:32:39.561Z,101303.82
2022-10-09T18:35:09.539Z,101307.61
2022-10-09T18:37:38.575Z,101307.64
2022-10-09T18:40:09.487Z,101312.48
2022-10-09T18:42:38.517Z,101312.70
2022-10-09T18:45:10.213Z,101320.45
2022-10-09T18:47:40.543Z,101323.97
2022-10-09T18:50:12.797Z,101328.45
2022-10-09T18:52:45.545Z,101333.32
2022-10-09T18:55:17.704Z,101338.90
2022-10-09T18:57:47.317Z,101344.23
2022-10-09T19:00:17.305Z,101347.11
2022-10-09T19:02:46.155Z,101355.08
2022-10-09T19:05:15.660Z,101355.05
2022-10-09T19:07:44.708Z,101354.52
2022-10-09T19:10:13.919Z,101356.86
2022-10-09T19:12:43.124Z,101359.96
2022-10-09T19:15:12.535Z,101361.83
2022-10-09T19:17:41.494Z,101365.80
2022-10-09T19:20:11.134Z,101362.80
2022-10-09T19:22:41.097Z,101373.74
2022-10-09T19:25:10.342Z,101371.85
2022-10-09T19:27:39.707Z,101373.94
2022-10-09T19:30:11.113Z,101376.03
2022-10-09T19:32:39.949Z,101385.67
2022-10-09T19:35:09.775Z,101389.80
2022-10-09T19:37:38.748Z,101391.72
2022-10-09T19:40:10.026Z,101396.39
2022-10-09T19:42:40.283Z,101399.52
2022-10-09T19:45:10.541Z,101407.56
2022-10-09T19:47:39.401Z,101413.88
2022-10-09T19:50:09.836Z,101415.67
2022-10-09T19:52:38.826Z,101414.24
2022-10-09T19:55:09.519Z,101414.71
2022-10-09T19:57:38.879Z,101418.52
2022-10-09T20:00:11.070Z,101417.94
2022-10-09T20:02:53.249Z,101418.03
2022-10-09T20:05:26.870Z,101418.84
2022-10-09T20:08:23.753Z,101415.77
2022-10-09T20:11:30.630Z,101417.56
2022-10-09T20:14:05.253Z,101426.23
2022-10-09T20:16:36.158Z,101427.09
2022-10-09T20:19:16.728Z,101431.16
2022-10-09T20:21:47.561Z,101436.05
2022-10-09T20:24:16.685Z,101437.73
2022-10-09T20:26:55.340Z,101437.14
2022-10-09T20:29:26.554Z,101442.56
2022-10-09T20:31:55.776Z,101439.86
2022-10-09T20:34:26.319Z,101440.65
2022-10-09T20:36:55.294Z,101434.35
2022-10-09T20:39:24.354Z,101437.05
2022-10-09T20:41:56.671Z,101438.58
2022-10-09T20:44:26.026Z,101440.67
2022-10-09T20:46:56.241Z,101443.78
2022-10-09T20:49:26.949Z,101443.83
2022-10-09T20:51:56.236Z,101444.02
2022-10-09T20:54:25.208Z,101448.68
2022-10-09T20:56:54.472Z,101454.73
2022-10-09T20:59:23.519Z,101457.89
2022-10-09T21:01:59.609Z,101458.61
2022-10-09T21:04:28.684Z,101457.38
2022-10-09T21:06:59.097Z,101455.64
2022-10-09T21:09:32.957Z,101458.08
2022-10-09T21:12:04.665Z,101455.11
2022-10-09T21:14:37.084Z,101461.56
2022-10-09T21:17:12.746Z,101464.43
2022-10-09T21:19:43.803Z,101469.73
2022-10-09T21:22:17.848Z,101468.85
2022-10-09T21:24:47.386Z,101475.45
2022-10-09T21:27:16.516Z,101472.84
2022-10-09T21:29:50.910Z,101471.29
2022-10-09T21:32:24.995Z,101470.77
2022-10-09T21:35:21.047Z,101472.52
2022-10-09T21:38:04.477Z,101477.66
2022-10-09T21:40:33.271Z,101480.73
2022-10-09T21:43:10.316Z,101481.48
2022-10-09T21:45:39.804Z,101483.26
2022-10-09T21:48:11.672Z,101484.55
2022-10-09T21:50:40.968Z,101487.30
2022-10-09T21:53:09.910Z,101487.88
2022-10-09T21:55:38.952Z,101485.62
2022-10-09T21:58:08.434Z,101486.21
2022-10-09T22:00:37.110Z,101493.02
2022-10-09T22:03:05.879Z,101491.64
2022-10-09T22:05:34.812Z,101489.92
2022-10-09T22:08:03.503Z,101493.85
2022-10-09T22:10:32.224Z,101497.22
2022-10-09T22:13:01.509Z,101496.05
2022-10-09T22:15:30.150Z,101493.98
2022-10-09T22:17:58.906Z,101494.93
2022-10-09T22:20:28.110Z,101500.32
2022-10-09T22:22:56.857Z,101505.45
2022-10-09T22:25:25.682Z,101511.69
2022-10-09T22:27:54.799Z,101514.20
2022-10-09T22:30:23.515Z,101520.23
2022-10-09T22:32:54.389Z,101523.77
2022-10-09T22:35:23.797Z,101524.12
2022-10-09T22:37:52.562Z,101523.42
2022-10-09T22:40:21.470Z,101526.45
2022-10-09T22:42:50.700Z,101527.00
2022-10-09T22:45:19.579Z,101528.59
2022-10-09T22:47:48.505Z,101535.34
2022-10-09T22:50:17.726Z,101531.63
2022-10-09T22:52:46.631Z,101535.69
2022-10-09T22:55:15.859Z,101537.83
2022-10-09T22:57:44.870Z,101542.24
2022-10-09T23:00:15.854Z,101545.98
2022-10-09T23:02:44.605Z,101552.79
2022-10-09T23:05:13.725Z,101554.83
2022-10-09T23:07:42.672Z,101555.21
2022-10-09T23:10:11.654Z,101559.14
2022-10-09T23:12:40.672Z,101558.46
2022-10-09T23:15:10.763Z,101559.58
2022-10-09T23:17:39.534Z,101555.73
2022-10-09T23:20:10.221Z,101561.96
2022-10-09T23:22:38.942Z,101565.86
2022-10-09T23:25:09.794Z,101568.83
2022-10-09T23:27:38.827Z,101572.02
2022-10-09T23:30:09.828Z,101575.57
2022-10-09T23:32:38.849Z,101571.19
2022-10-09T23:35:09.021Z,101573.14
2022-10-09T23:37:37.890Z,101578.98
2022-10-09T23:40:08.327Z,101580.05
2022-10-09T23:42:37.204Z,101579.17
2022-10-09T23:45:08.515Z,101582.39
2022-10-09T23:47:37.624Z,101581.33
2022-10-09T23:50:07.465Z,101586.27
2022-10-09T23:52:36.482Z,101588.27
2022-10-09T23:55:07.096Z,101589.36
2022-10-09T23:57:36.464Z,101584.94
